sensor_id;sensor_type;location;lat;lon;timestamp;P1;durP1;ratioP1;P2;durP2;ratioP2
41705;SDS011;27385;51.096;17.190;2023-07-29T00:01:51;4.20;;;1.20;;
41705;SDS011;27385;51.096;17.190;2023-07-29T00:04:22;5.00;;;1.20;;
41705;SDS011;27385;51.096;17.190;2023-07-29T00:06:53;3.20;;;0.80;;
41705;SDS011;27385;51.096;17.190;2023-07-29T00:09:23;5.20;;;1.20;;
41705;SDS011;27385;51.096;17.190;2023-07-29T00:11:54;3.50;;;1.10;;
41705;SDS011;27385;51.096;17.190;2023-07-29T00:14:25;8.10;;;1.40;;
41705;SDS011;27385;51.096;17.190;2023-07-29T00:16:56;4.10;;;1.10;;
41705;SDS011;27385;51.096;17.190;2023-07-29T00:19:26;7.00;;;1.20;;
41705;SDS011;27385;51.096;17.190;2023-07-29T00:21:57;4.00;;;1.10;;
41705;SDS011;27385;51.096;17.190;2023-07-29T00:24:28;4.20;;;1.00;;
41705;SDS011;27385;51.096;17.190;2023-07-29T00:26:59;7.40;;;1.30;;
41705;SDS011;27385;51.096;17.190;2023-07-29T00:29:29;6.40;;;1.10;;
41705;SDS011;27385;51.096;17.190;2023-07-29T00:32:00;6.40;;;1.40;;
41705;SDS011;27385;51.096;17.190;2023-07-29T00:34:31;4.90;;;1.60;;
41705;SDS011;27385;51.096;17.190;2023-07-29T00:37:02;4.10;;;1.00;;
41705;SDS011;27385;51.096;17.190;2023-07-29T00:39:33;5.70;;;1.30;;
41705;SDS011;27385;51.096;17.190;2023-07-29T00:42:05;8.50;;;1.20;;
41705;SDS011;27385;51.096;17.190;2023-07-29T00:44:36;4.00;;;1.30;;
41705;SDS011;27385;51.096;17.190;2023-07-29T00:47:07;5.00;;;1.30;;
41705;SDS011;27385;51.096;17.190;2023-07-29T00:49:39;5.20;;;1.20;;
41705;SDS011;27385;51.096;17.190;2023-07-29T00:52:10;5.10;;;1.20;;
41705;SDS011;27385;51.096;17.190;2023-07-29T00:54:41;5.40;;;1.70;;
41705;SDS011;27385;51.096;17.190;2023-07-29T00:57:12;8.20;;;1.40;;
41705;SDS011;27385;51.096;17.190;2023-07-29T00:59:45;5.90;;;1.30;;
41705;SDS011;27385;51.096;17.190;2023-07-29T01:02:20;5.20;;;1.30;;
41705;SDS011;27385;51.096;17.190;2023-07-29T01:04:52;5.40;;;1.50;;
41705;SDS011;27385;51.096;17.190;2023-07-29T01:07:27;4.60;;;1.10;;
41705;SDS011;27385;51.096;17.190;2023-07-29T01:10:04;3.60;;;1.10;;
41705;SDS011;27385;51.096;17.190;2023-07-29T01:12:45;6.80;;;1.60;;
41705;SDS011;27385;51.096;17.190;2023-07-29T01:15:22;4.80;;;1.30;;
41705;SDS011;27385;51.096;17.190;2023-07-29T01:17:59;3.90;;;1.10;;
41705;SDS011;27385;51.096;17.190;2023-07-29T01:20:34;5.50;;;1.40;;
41705;SDS011;27385;51.096;17.190;2023-07-29T01:23:09;6.70;;;1.50;;
41705;SDS011;27385;51.096;17.190;2023-07-29T01:25:40;5.50;;;1.20;;
41705;SDS011;27385;51.096;17.190;2023-07-29T01:28:10;6.50;;;1.30;;
41705;SDS011;27385;51.096;17.190;2023-07-29T01:30:41;5.40;;;1.20;;
41705;SDS011;27385;51.096;17.190;2023-07-29T01:33:15;8.50;;;1.40;;
41705;SDS011;27385;51.096;17.190;2023-07-29T01:35:49;4.80;;;1.20;;
41705;SDS011;27385;51.096;17.190;2023-07-29T01:38:29;7.70;;;1.60;;
41705;SDS011;27385;51.096;17.190;2023-07-29T01:41:04;4.70;;;1.40;;
41705;SDS011;27385;51.096;17.190;2023-07-29T01:43:37;5.40;;;1.70;;
41705;SDS011;27385;51.096;17.190;2023-07-29T01:46:11;12.40;;;2.20;;
41705;SDS011;27385;51.096;17.190;2023-07-29T01:48:43;8.50;;;1.70;;
41705;SDS011;27385;51.096;17.190;2023-07-29T01:51:14;5.60;;;1.60;;
41705;SDS011;27385;51.096;17.190;2023-07-29T01:53:45;6.30;;;1.80;;
41705;SDS011;27385;51.096;17.190;2023-07-29T01:56:15;6.90;;;1.90;;
41705;SDS011;27385;51.096;17.190;2023-07-29T01:58:46;9.40;;;1.90;;
41705;SDS011;27385;51.096;17.190;2023-07-29T02:01:17;6.70;;;1.40;;
41705;SDS011;27385;51.096;17.190;2023-07-29T02:03:48;6.30;;;1.70;;
41705;SDS011;27385;51.096;17.190;2023-07-29T02:06:23;8.00;;;2.10;;
41705;SDS011;27385;51.096;17.190;2023-07-29T02:08:55;6.60;;;1.80;;
41705;SDS011;27385;51.096;17.190;2023-07-29T02:11:26;10.10;;;1.60;;
41705;SDS011;27385;51.096;17.190;2023-07-29T02:13:56;6.10;;;1.70;;
41705;SDS011;27385;51.096;17.190;2023-07-29T02:16:27;7.40;;;1.90;;
41705;SDS011;27385;51.096;17.190;2023-07-29T02:18:58;5.90;;;1.40;;
41705;SDS011;27385;51.096;17.190;2023-07-29T02:21:29;8.20;;;1.80;;
41705;SDS011;27385;51.096;17.190;2023-07-29T02:23:59;6.70;;;1.60;;
41705;SDS011;27385;51.096;17.190;2023-07-29T02:26:30;10.90;;;2.20;;
41705;SDS011;27385;51.096;17.190;2023-07-29T02:29:01;8.00;;;1.90;;
41705;SDS011;27385;51.096;17.190;2023-07-29T02:31:32;7.60;;;1.80;;
41705;SDS011;27385;51.096;17.190;2023-07-29T02:34:05;10.30;;;1.70;;
41705;SDS011;27385;51.096;17.190;2023-07-29T02:36:36;5.80;;;1.70;;
41705;SDS011;27385;51.096;17.190;2023-07-29T02:39:06;6.80;;;1.80;;
41705;SDS011;27385;51.096;17.190;2023-07-29T02:41:38;6.60;;;1.60;;
41705;SDS011;27385;51.096;17.190;2023-07-29T02:44:08;6.30;;;1.90;;
41705;SDS011;27385;51.096;17.190;2023-07-29T02:46:39;6.90;;;1.80;;
41705;SDS011;27385;51.096;17.190;2023-07-29T02:49:10;7.60;;;1.60;;
41705;SDS011;27385;51.096;17.190;2023-07-29T02:51:41;8.40;;;2.00;;
41705;SDS011;27385;51.096;17.190;2023-07-29T02:54:12;5.00;;;1.60;;
41705;SDS011;27385;51.096;17.190;2023-07-29T02:56:42;6.40;;;1.70;;
41705;SDS011;27385;51.096;17.190;2023-07-29T02:59:13;8.60;;;1.50;;
41705;SDS011;27385;51.096;17.190;2023-07-29T03:01:44;5.70;;;1.40;;
41705;SDS011;27385;51.096;17.190;2023-07-29T03:04:15;9.10;;;1.70;;
41705;SDS011;27385;51.096;17.190;2023-07-29T03:06:46;5.10;;;1.30;;
41705;SDS011;27385;51.096;17.190;2023-07-29T03:09:16;7.00;;;1.90;;
41705;SDS011;27385;51.096;17.190;2023-07-29T03:11:47;6.40;;;1.80;;
41705;SDS011;27385;51.096;17.190;2023-07-29T03:14:19;5.70;;;1.80;;
41705;SDS011;27385;51.096;17.190;2023-07-29T03:16:50;8.80;;;2.20;;
41705;SDS011;27385;51.096;17.190;2023-07-29T03:19:21;5.90;;;1.60;;
41705;SDS011;27385;51.096;17.190;2023-07-29T03:21:52;5.20;;;1.50;;
41705;SDS011;27385;51.096;17.190;2023-07-29T03:24:22;7.60;;;2.90;;
41705;SDS011;27385;51.096;17.190;2023-07-29T03:26:53;4.20;;;1.60;;
41705;SDS011;27385;51.096;17.190;2023-07-29T03:29:24;5.70;;;1.40;;
41705;SDS011;27385;51.096;17.190;2023-07-29T03:31:56;7.80;;;1.70;;
41705;SDS011;27385;51.096;17.190;2023-07-29T03:34:27;6.90;;;1.80;;
41705;SDS011;27385;51.096;17.190;2023-07-29T03:36:58;4.10;;;1.50;;
41705;SDS011;27385;51.096;17.190;2023-07-29T03:39:29;6.20;;;1.50;;
41705;SDS011;27385;51.096;17.190;2023-07-29T03:42:00;4.30;;;1.50;;
41705;SDS011;27385;51.096;17.190;2023-07-29T03:44:31;5.30;;;1.70;;
41705;SDS011;27385;51.096;17.190;2023-07-29T03:47:03;4.80;;;1.70;;
41705;SDS011;27385;51.096;17.190;2023-07-29T03:49:34;6.00;;;1.50;;
41705;SDS011;27385;51.096;17.190;2023-07-29T03:52:06;7.20;;;1.70;;
41705;SDS011;27385;51.096;17.190;2023-07-29T03:54:37;9.30;;;1.70;;
41705;SDS011;27385;51.096;17.190;2023-07-29T03:57:08;5.90;;;1.60;;
41705;SDS011;27385;51.096;17.190;2023-07-29T03:59:38;4.70;;;1.80;;
41705;SDS011;27385;51.096;17.190;2023-07-29T04:02:09;8.70;;;1.70;;
41705;SDS011;27385;51.096;17.190;2023-07-29T04:04:40;6.80;;;1.50;;
41705;SDS011;27385;51.096;17.190;2023-07-29T04:07:12;5.90;;;1.50;;
41705;SDS011;27385;51.096;17.190;2023-07-29T04:09:43;6.90;;;1.60;;
41705;SDS011;27385;51.096;17.190;2023-07-29T04:12:14;5.50;;;1.50;;
41705;SDS011;27385;51.096;17.190;2023-07-29T04:14:44;5.70;;;1.50;;
41705;SDS011;27385;51.096;17.190;2023-07-29T04:17:15;6.30;;;1.60;;
41705;SDS011;27385;51.096;17.190;2023-07-29T04:19:46;5.30;;;1.60;;
41705;SDS011;27385;51.096;17.190;2023-07-29T04:22:16;5.50;;;1.70;;
41705;SDS011;27385;51.096;17.190;2023-07-29T04:24:47;6.30;;;1.50;;
41705;SDS011;27385;51.096;17.190;2023-07-29T04:27:18;6.50;;;2.10;;
41705;SDS011;27385;51.096;17.190;2023-07-29T04:29:49;7.10;;;1.60;;
41705;SDS011;27385;51.096;17.190;2023-07-29T04:32:20;5.40;;;1.40;;
41705;SDS011;27385;51.096;17.190;2023-07-29T04:34:50;5.40;;;1.70;;
41705;SDS011;27385;51.096;17.190;2023-07-29T04:37:21;8.60;;;1.80;;
41705;SDS011;27385;51.096;17.190;2023-07-29T04:39:52;7.00;;;2.20;;
41705;SDS011;27385;51.096;17.190;2023-07-29T04:42:23;5.50;;;1.50;;
41705;SDS011;27385;51.096;17.190;2023-07-29T04:44:54;7.10;;;1.70;;
41705;SDS011;27385;51.096;17.190;2023-07-29T04:47:25;7.70;;;2.40;;
41705;SDS011;27385;51.096;17.190;2023-07-29T04:49:56;7.50;;;1.50;;
41705;SDS011;27385;51.096;17.190;2023-07-29T04:52:27;8.30;;;2.20;;
41705;SDS011;27385;51.096;17.190;2023-07-29T04:54:57;6.70;;;1.70;;
41705;SDS011;27385;51.096;17.190;2023-07-29T04:57:28;7.10;;;1.90;;
41705;SDS011;27385;51.096;17.190;2023-07-29T05:00:00;8.30;;;1.60;;
41705;SDS011;27385;51.096;17.190;2023-07-29T05:02:31;10.10;;;2.20;;
41705;SDS011;27385;51.096;17.190;2023-07-29T05:05:02;6.80;;;1.90;;
41705;SDS011;27385;51.096;17.190;2023-07-29T05:07:34;6.50;;;2.00;;
41705;SDS011;27385;51.096;17.190;2023-07-29T05:10:05;7.10;;;1.60;;
41705;SDS011;27385;51.096;17.190;2023-07-29T05:12:37;8.20;;;1.90;;
41705;SDS011;27385;51.096;17.190;2023-07-29T05:15:09;9.30;;;1.60;;
41705;SDS011;27385;51.096;17.190;2023-07-29T05:17:40;8.00;;;1.60;;
41705;SDS011;27385;51.096;17.190;2023-07-29T05:20:11;6.00;;;1.50;;
41705;SDS011;27385;51.096;17.190;2023-07-29T05:22:42;6.40;;;1.60;;
41705;SDS011;27385;51.096;17.190;2023-07-29T05:25:13;7.90;;;1.50;;
41705;SDS011;27385;51.096;17.190;2023-07-29T05:27:44;5.40;;;1.70;;
41705;SDS011;27385;51.096;17.190;2023-07-29T05:30:15;7.50;;;1.90;;
41705;SDS011;27385;51.096;17.190;2023-07-29T05:32:46;5.90;;;1.40;;
41705;SDS011;27385;51.096;17.190;2023-07-29T05:35:17;8.20;;;1.30;;
41705;SDS011;27385;51.096;17.190;2023-07-29T05:37:48;6.10;;;1.50;;
41705;SDS011;27385;51.096;17.190;2023-07-29T05:40:19;6.80;;;1.40;;
41705;SDS011;27385;51.096;17.190;2023-07-29T05:42:50;6.00;;;1.50;;
41705;SDS011;27385;51.096;17.190;2023-07-29T05:45:21;4.20;;;1.20;;
41705;SDS011;27385;51.096;17.190;2023-07-29T05:47:52;4.60;;;1.00;;
41705;SDS011;27385;51.096;17.190;2023-07-29T05:50:25;10.50;;;1.50;;
41705;SDS011;27385;51.096;17.190;2023-07-29T05:52:56;6.60;;;1.30;;
41705;SDS011;27385;51.096;17.190;2023-07-29T05:55:27;7.50;;;1.40;;
41705;SDS011;27385;51.096;17.190;2023-07-29T05:57:58;4.80;;;1.20;;
41705;SDS011;27385;51.096;17.190;2023-07-29T06:00:29;7.10;;;1.60;;
41705;SDS011;27385;51.096;17.190;2023-07-29T06:02:59;7.00;;;1.10;;
41705;SDS011;27385;51.096;17.190;2023-07-29T06:05:31;4.50;;;1.10;;
41705;SDS011;27385;51.096;17.190;2023-07-29T06:08:01;6.70;;;1.20;;
41705;SDS011;27385;51.096;17.190;2023-07-29T06:10:32;5.20;;;1.10;;
41705;SDS011;27385;51.096;17.190;2023-07-29T06:13:03;4.90;;;0.90;;
41705;SDS011;27385;51.096;17.190;2023-07-29T06:15:34;5.70;;;1.10;;
41705;SDS011;27385;51.096;17.190;2023-07-29T06:18:05;3.80;;;0.90;;
41705;SDS011;27385;51.096;17.190;2023-07-29T06:20:36;7.60;;;1.20;;
41705;SDS011;27385;51.096;17.190;2023-07-29T06:23:07;8.80;;;1.20;;
41705;SDS011;27385;51.096;17.190;2023-07-29T06:25:38;4.50;;;1.00;;
41705;SDS011;27385;51.096;17.190;2023-07-29T06:28:10;8.20;;;0.90;;
41705;SDS011;27385;51.096;17.190;2023-07-29T06:30:41;5.50;;;1.30;;
41705;SDS011;27385;51.096;17.190;2023-07-29T06:33:11;7.40;;;1.10;;
41705;SDS011;27385;51.096;17.190;2023-07-29T06:35:42;3.00;;;0.90;;
41705;SDS011;27385;51.096;17.190;2023-07-29T06:38:13;5.10;;;1.00;;
41705;SDS011;27385;51.096;17.190;2023-07-29T06:40:49;4.80;;;0.80;;
41705;SDS011;27385;51.096;17.190;2023-07-29T06:43:20;3.30;;;0.70;;
41705;SDS011;27385;51.096;17.190;2023-07-29T06:45:51;6.40;;;0.90;;
41705;SDS011;27385;51.096;17.190;2023-07-29T06:48:23;8.70;;;0.90;;
41705;SDS011;27385;51.096;17.190;2023-07-29T06:50:54;4.90;;;0.80;;
41705;SDS011;27385;51.096;17.190;2023-07-29T06:53:28;3.70;;;0.70;;
41705;SDS011;27385;51.096;17.190;2023-07-29T06:55:59;5.20;;;0.80;;
41705;SDS011;27385;51.096;17.190;2023-07-29T06:58:30;3.40;;;0.80;;
41705;SDS011;27385;51.096;17.190;2023-07-29T07:01:00;2.20;;;0.70;;
41705;SDS011;27385;51.096;17.190;2023-07-29T07:03:31;3.80;;;0.50;;
41705;SDS011;27385;51.096;17.190;2023-07-29T07:06:02;5.70;;;0.60;;
41705;SDS011;27385;51.096;17.190;2023-07-29T07:08:33;2.70;;;0.70;;
41705;SDS011;27385;51.096;17.190;2023-07-29T07:11:04;2.50;;;0.60;;
41705;SDS011;27385;51.096;17.190;2023-07-29T07:13:36;2.30;;;0.70;;
41705;SDS011;27385;51.096;17.190;2023-07-29T07:16:07;1.40;;;0.50;;
41705;SDS011;27385;51.096;17.190;2023-07-29T07:18:38;6.40;;;0.70;;
41705;SDS011;27385;51.096;17.190;2023-07-29T07:21:09;2.00;;;0.50;;
41705;SDS011;27385;51.096;17.190;2023-07-29T07:23:39;4.70;;;0.70;;
41705;SDS011;27385;51.096;17.190;2023-07-29T07:26:10;15.90;;;4.10;;
41705;SDS011;27385;51.096;17.190;2023-07-29T07:28:41;13.10;;;7.00;;
41705;SDS011;27385;51.096;17.190;2023-07-29T07:31:12;5.50;;;1.20;;
41705;SDS011;27385;51.096;17.190;2023-07-29T07:33:44;6.00;;;0.70;;
41705;SDS011;27385;51.096;17.190;2023-07-29T07:36:15;2.80;;;0.60;;
41705;SDS011;27385;51.096;17.190;2023-07-29T07:38:46;2.50;;;0.40;;
41705;SDS011;27385;51.096;17.190;2023-07-29T07:41:16;5.10;;;0.70;;
41705;SDS011;27385;51.096;17.190;2023-07-29T07:43:47;1.90;;;0.60;;
41705;SDS011;27385;51.096;17.190;2023-07-29T07:46:18;3.60;;;0.60;;
41705;SDS011;27385;51.096;17.190;2023-07-29T07:48:49;2.30;;;0.50;;
41705;SDS011;27385;51.096;17.190;2023-07-29T07:51:20;3.20;;;0.40;;
41705;SDS011;27385;51.096;17.190;2023-07-29T07:53:51;2.60;;;0.50;;
41705;SDS011;27385;51.096;17.190;2023-07-29T07:56:22;1.60;;;0.40;;
41705;SDS011;27385;51.096;17.190;2023-07-29T07:58:53;2.20;;;0.50;;
41705;SDS011;27385;51.096;17.190;2023-07-29T08:01:23;1.50;;;0.40;;
41705;SDS011;27385;51.096;17.190;2023-07-29T08:03:54;2.00;;;0.50;;
41705;SDS011;27385;51.096;17.190;2023-07-29T08:06:25;4.30;;;0.60;;
41705;SDS011;27385;51.096;17.190;2023-07-29T08:08:56;2.50;;;0.40;;
41705;SDS011;27385;51.096;17.190;2023-07-29T08:11:27;2.20;;;0.50;;
41705;SDS011;27385;51.096;17.190;2023-07-29T08:13:59;2.30;;;0.50;;
41705;SDS011;27385;51.096;17.190;2023-07-29T08:16:30;3.80;;;0.60;;
41705;SDS011;27385;51.096;17.190;2023-07-29T08:19:01;2.40;;;0.80;;
41705;SDS011;27385;51.096;17.190;2023-07-29T08:21:32;3.90;;;1.10;;
41705;SDS011;27385;51.096;17.190;2023-07-29T08:24:02;3.30;;;0.60;;
41705;SDS011;27385;51.096;17.190;2023-07-29T08:26:34;2.40;;;0.60;;
41705;SDS011;27385;51.096;17.190;2023-07-29T08:29:05;2.30;;;0.70;;
41705;SDS011;27385;51.096;17.190;2023-07-29T08:31:37;2.80;;;0.90;;
41705;SDS011;27385;51.096;17.190;2023-07-29T08:34:07;4.40;;;0.50;;
41705;SDS011;27385;51.096;17.190;2023-07-29T08:36:38;2.40;;;0.60;;
41705;SDS011;27385;51.096;17.190;2023-07-29T08:39:09;1.90;;;0.60;;
41705;SDS011;27385;51.096;17.190;2023-07-29T08:41:45;2.00;;;0.60;;
41705;SDS011;27385;51.096;17.190;2023-07-29T08:44:23;2.10;;;0.50;;
41705;SDS011;27385;51.096;17.190;2023-07-29T08:46:55;3.00;;;0.50;;
41705;SDS011;27385;51.096;17.190;2023-07-29T08:49:28;4.10;;;0.50;;
41705;SDS011;27385;51.096;17.190;2023-07-29T08:52:01;1.80;;;0.40;;
41705;SDS011;27385;51.096;17.190;2023-07-29T08:54:33;2.80;;;0.60;;
41705;SDS011;27385;51.096;17.190;2023-07-29T08:57:04;1.40;;;0.30;;
41705;SDS011;27385;51.096;17.190;2023-07-29T08:59:36;1.80;;;0.30;;
41705;SDS011;27385;51.096;17.190;2023-07-29T09:02:08;1.10;;;0.40;;
41705;SDS011;27385;51.096;17.190;2023-07-29T09:04:39;2.90;;;0.50;;
41705;SDS011;27385;51.096;17.190;2023-07-29T09:07:11;1.30;;;0.30;;
41705;SDS011;27385;51.096;17.190;2023-07-29T09:09:43;1.20;;;0.40;;
41705;SDS011;27385;51.096;17.190;2023-07-29T09:12:15;1.90;;;0.50;;
41705;SDS011;27385;51.096;17.190;2023-07-29T09:14:45;0.80;;;0.30;;
41705;SDS011;27385;51.096;17.190;2023-07-29T09:17:20;2.80;;;0.30;;
41705;SDS011;27385;51.096;17.190;2023-07-29T09:19:51;2.00;;;0.40;;
41705;SDS011;27385;51.096;17.190;2023-07-29T09:22:22;1.60;;;0.30;;
41705;SDS011;27385;51.096;17.190;2023-07-29T09:24:58;3.10;;;0.40;;
41705;SDS011;27385;51.096;17.190;2023-07-29T09:27:30;1.50;;;0.30;;
41705;SDS011;27385;51.096;17.190;2023-07-29T09:30:07;3.70;;;1.20;;
41705;SDS011;27385;51.096;17.190;2023-07-29T09:32:46;5.90;;;1.50;;
41705;SDS011;27385;51.096;17.190;2023-07-29T09:35:21;3.20;;;0.90;;
41705;SDS011;27385;51.096;17.190;2023-07-29T09:37:53;2.10;;;0.50;;
41705;SDS011;27385;51.096;17.190;2023-07-29T09:40:25;1.40;;;0.40;;
41705;SDS011;27385;51.096;17.190;2023-07-29T09:42:56;1.70;;;0.50;;
41705;SDS011;27385;51.096;17.190;2023-07-29T09:45:26;1.80;;;0.40;;
41705;SDS011;27385;51.096;17.190;2023-07-29T09:47:58;1.60;;;0.40;;
41705;SDS011;27385;51.096;17.190;2023-07-29T09:50:30;1.10;;;0.30;;
41705;SDS011;27385;51.096;17.190;2023-07-29T09:53:02;1.20;;;0.30;;
41705;SDS011;27385;51.096;17.190;2023-07-29T09:55:34;1.60;;;0.30;;
41705;SDS011;27385;51.096;17.190;2023-07-29T09:58:05;2.10;;;0.40;;
41705;SDS011;27385;51.096;17.190;2023-07-29T10:00:37;2.80;;;0.40;;
41705;SDS011;27385;51.096;17.190;2023-07-29T10:03:09;3.10;;;0.50;;
41705;SDS011;27385;51.096;17.190;2023-07-29T10:05:42;1.10;;;0.40;;
41705;SDS011;27385;51.096;17.190;2023-07-29T10:08:14;4.30;;;0.50;;
41705;SDS011;27385;51.096;17.190;2023-07-29T10:10:46;2.60;;;0.40;;
41705;SDS011;27385;51.096;17.190;2023-07-29T10:13:18;2.00;;;0.40;;
41705;SDS011;27385;51.096;17.190;2023-07-29T10:15:49;1.70;;;0.60;;
41705;SDS011;27385;51.096;17.190;2023-07-29T10:18:22;3.00;;;0.40;;
41705;SDS011;27385;51.096;17.190;2023-07-29T10:20:53;2.80;;;0.50;;
41705;SDS011;27385;51.096;17.190;2023-07-29T10:23:26;2.00;;;0.50;;
41705;SDS011;27385;51.096;17.190;2023-07-29T10:26:11;3.40;;;0.70;;
41705;SDS011;27385;51.096;17.190;2023-07-29T10:28:46;2.60;;;0.70;;
41705;SDS011;27385;51.096;17.190;2023-07-29T10:31:21;2.40;;;0.80;;
41705;SDS011;27385;51.096;17.190;2023-07-29T10:33:53;2.70;;;0.80;;
41705;SDS011;27385;51.096;17.190;2023-07-29T10:36:25;2.60;;;0.90;;
41705;SDS011;27385;51.096;17.190;2023-07-29T10:38:58;2.40;;;0.80;;
41705;SDS011;27385;51.096;17.190;2023-07-29T10:47:21;2.80;;;0.90;;
41705;SDS011;27385;51.096;17.190;2023-07-29T10:49:53;2.80;;;0.90;;
41705;SDS011;27385;51.096;17.190;2023-07-29T10:52:40;5.30;;;1.50;;
41705;SDS011;27385;51.096;17.190;2023-07-29T10:55:24;5.40;;;1.20;;
41705;SDS011;27385;51.096;17.190;2023-07-29T10:58:05;3.30;;;0.90;;
41705;SDS011;27385;51.096;17.190;2023-07-29T11:00:42;3.20;;;1.00;;
41705;SDS011;27385;51.096;17.190;2023-07-29T11:03:14;3.30;;;0.80;;
41705;SDS011;27385;51.096;17.190;2023-07-29T11:05:50;3.20;;;0.90;;
41705;SDS011;27385;51.096;17.190;2023-07-29T11:08:23;2.70;;;1.00;;
41705;SDS011;27385;51.096;17.190;2023-07-29T11:11:01;2.30;;;0.90;;
41705;SDS011;27385;51.096;17.190;2023-07-29T11:13:33;1.80;;;0.70;;
41705;SDS011;27385;51.096;17.190;2023-07-29T11:16:06;1.90;;;0.80;;
41705;SDS011;27385;51.096;17.190;2023-07-29T11:18:39;3.30;;;1.00;;
41705;SDS011;27385;51.096;17.190;2023-07-29T11:21:12;4.20;;;0.90;;
41705;SDS011;27385;51.096;17.190;2023-07-29T11:23:44;4.60;;;0.90;;
41705;SDS011;27385;51.096;17.190;2023-07-29T11:26:18;4.00;;;1.00;;
41705;SDS011;27385;51.096;17.190;2023-07-29T11:28:49;2.10;;;0.80;;
41705;SDS011;27385;51.096;17.190;2023-07-29T11:31:20;3.00;;;1.00;;
41705;SDS011;27385;51.096;17.190;2023-07-29T11:33:51;3.40;;;0.80;;
41705;SDS011;27385;51.096;17.190;2023-07-29T11:36:22;2.80;;;0.90;;
41705;SDS011;27385;51.096;17.190;2023-07-29T11:38:54;2.80;;;0.90;;
41705;SDS011;27385;51.096;17.190;2023-07-29T11:41:26;1.80;;;0.70;;
41705;SDS011;27385;51.096;17.190;2023-07-29T11:43:57;5.10;;;0.80;;
41705;SDS011;27385;51.096;17.190;2023-07-29T11:46:28;2.90;;;0.50;;
41705;SDS011;27385;51.096;17.190;2023-07-29T11:48:59;1.90;;;0.70;;
41705;SDS011;27385;51.096;17.190;2023-07-29T11:51:31;4.80;;;0.80;;
41705;SDS011;27385;51.096;17.190;2023-07-29T11:54:03;1.30;;;0.50;;
41705;SDS011;27385;51.096;17.190;2023-07-29T11:56:34;12.90;;;5.30;;
41705;SDS011;27385;51.096;17.190;2023-07-29T11:59:06;3.90;;;0.90;;
41705;SDS011;27385;51.096;17.190;2023-07-29T12:01:37;3.70;;;0.80;;
41705;SDS011;27385;51.096;17.190;2023-07-29T12:04:09;2.00;;;0.70;;
41705;SDS011;27385;51.096;17.190;2023-07-29T12:06:41;2.50;;;0.80;;
41705;SDS011;27385;51.096;17.190;2023-07-29T12:09:12;10.00;;;1.10;;
41705;SDS011;27385;51.096;17.190;2023-07-29T12:11:44;1.80;;;0.70;;
41705;SDS011;27385;51.096;17.190;2023-07-29T12:14:15;1.40;;;0.60;;
41705;SDS011;27385;51.096;17.190;2023-07-29T12:16:47;1.90;;;0.60;;
41705;SDS011;27385;51.096;17.190;2023-07-29T12:19:20;2.40;;;0.50;;
41705;SDS011;27385;51.096;17.190;2023-07-29T12:21:52;2.30;;;0.50;;
41705;SDS011;27385;51.096;17.190;2023-07-29T12:24:24;1.60;;;0.50;;
41705;SDS011;27385;51.096;17.190;2023-07-29T12:26:56;2.00;;;0.50;;
41705;SDS011;27385;51.096;17.190;2023-07-29T12:29:27;1.80;;;0.40;;
41705;SDS011;27385;51.096;17.190;2023-07-29T12:31:59;2.80;;;0.40;;
41705;SDS011;27385;51.096;17.190;2023-07-29T12:34:32;2.20;;;0.40;;
41705;SDS011;27385;51.096;17.190;2023-07-29T12:37:04;1.30;;;0.30;;
41705;SDS011;27385;51.096;17.190;2023-07-29T12:39:40;0.90;;;0.30;;
41705;SDS011;27385;51.096;17.190;2023-07-29T12:42:11;3.00;;;0.40;;
41705;SDS011;27385;51.096;17.190;2023-07-29T12:44:42;2.80;;;0.40;;
41705;SDS011;27385;51.096;17.190;2023-07-29T12:47:14;2.90;;;0.60;;
41705;SDS011;27385;51.096;17.190;2023-07-29T12:49:45;3.90;;;0.90;;
41705;SDS011;27385;51.096;17.190;2023-07-29T12:52:17;3.50;;;1.00;;
41705;SDS011;27385;51.096;17.190;2023-07-29T12:54:48;2.90;;;0.90;;
41705;SDS011;27385;51.096;17.190;2023-07-29T12:57:18;2.10;;;0.50;;
41705;SDS011;27385;51.096;17.190;2023-07-29T12:59:50;4.60;;;0.30;;
41705;SDS011;27385;51.096;17.190;2023-07-29T13:02:21;3.50;;;1.40;;
41705;SDS011;27385;51.096;17.190;2023-07-29T13:04:53;1.80;;;0.50;;
41705;SDS011;27385;51.096;17.190;2023-07-29T13:07:24;6.60;;;1.70;;
41705;SDS011;27385;51.096;17.190;2023-07-29T13:09:55;4.20;;;0.90;;
41705;SDS011;27385;51.096;17.190;2023-07-29T13:12:26;3.90;;;0.90;;
41705;SDS011;27385;51.096;17.190;2023-07-29T13:14:57;7.70;;;0.70;;
41705;SDS011;27385;51.096;17.190;2023-07-29T13:17:28;1.30;;;0.30;;
41705;SDS011;27385;51.096;17.190;2023-07-29T13:19:59;1.50;;;0.50;;
41705;SDS011;27385;51.096;17.190;2023-07-29T13:22:30;4.40;;;0.40;;
41705;SDS011;27385;51.096;17.190;2023-07-29T13:25:01;1.30;;;0.40;;
41705;SDS011;27385;51.096;17.190;2023-07-29T13:27:34;2.50;;;0.40;;
41705;SDS011;27385;51.096;17.190;2023-07-29T13:30:07;1.50;;;0.30;;
41705;SDS011;27385;51.096;17.190;2023-07-29T13:32:41;1.30;;;0.40;;
41705;SDS011;27385;51.096;17.190;2023-07-29T13:35:12;2.60;;;0.40;;
41705;SDS011;27385;51.096;17.190;2023-07-29T13:37:43;1.10;;;0.30;;
41705;SDS011;27385;51.096;17.190;2023-07-29T13:40:14;1.30;;;0.30;;
41705;SDS011;27385;51.096;17.190;2023-07-29T13:42:46;3.40;;;0.40;;
41705;SDS011;27385;51.096;17.190;2023-07-29T13:45:19;3.10;;;0.50;;
41705;SDS011;27385;51.096;17.190;2023-07-29T13:47:51;7.20;;;0.40;;
41705;SDS011;27385;51.096;17.190;2023-07-29T13:50:22;0.70;;;0.30;;
41705;SDS011;27385;51.096;17.190;2023-07-29T13:52:53;3.40;;;0.30;;
41705;SDS011;27385;51.096;17.190;2023-07-29T13:55:24;3.30;;;0.50;;
41705;SDS011;27385;51.096;17.190;2023-07-29T13:57:57;4.00;;;0.40;;
41705;SDS011;27385;51.096;17.190;2023-07-29T14:00:28;1.60;;;0.40;;
41705;SDS011;27385;51.096;17.190;2023-07-29T14:03:00;3.30;;;0.20;;
41705;SDS011;27385;51.096;17.190;2023-07-29T14:05:32;1.30;;;0.30;;
41705;SDS011;27385;51.096;17.190;2023-07-29T14:08:03;2.20;;;0.20;;
41705;SDS011;27385;51.096;17.190;2023-07-29T14:10:34;1.60;;;0.40;;
41705;SDS011;27385;51.096;17.190;2023-07-29T14:13:06;1.30;;;0.30;;
41705;SDS011;27385;51.096;17.190;2023-07-29T14:15:37;1.10;;;0.20;;
41705;SDS011;27385;51.096;17.190;2023-07-29T14:18:08;1.10;;;0.30;;
41705;SDS011;27385;51.096;17.190;2023-07-29T14:20:40;3.40;;;0.30;;
41705;SDS011;27385;51.096;17.190;2023-07-29T14:23:11;1.30;;;0.20;;
41705;SDS011;27385;51.096;17.190;2023-07-29T14:25:42;0.80;;;0.20;;
41705;SDS011;27385;51.096;17.190;2023-07-29T14:28:13;1.60;;;0.20;;
41705;SDS011;27385;51.096;17.190;2023-07-29T14:30:44;1.10;;;0.10;;
41705;SDS011;27385;51.096;17.190;2023-07-29T14:33:15;1.20;;;0.40;;
41705;SDS011;27385;51.096;17.190;2023-07-29T14:35:45;1.20;;;0.30;;
41705;SDS011;27385;51.096;17.190;2023-07-29T14:38:17;1.90;;;0.30;;
41705;SDS011;27385;51.096;17.190;2023-07-29T14:40:48;2.00;;;0.30;;
41705;SDS011;27385;51.096;17.190;2023-07-29T14:43:22;1.70;;;0.30;;
41705;SDS011;27385;51.096;17.190;2023-07-29T14:45:53;2.00;;;0.20;;
41705;SDS011;27385;51.096;17.190;2023-07-29T14:48:24;1.30;;;0.20;;
41705;SDS011;27385;51.096;17.190;2023-07-29T14:50:55;0.90;;;0.30;;
41705;SDS011;27385;51.096;17.190;2023-07-29T14:53:25;1.60;;;0.30;;
41705;SDS011;27385;51.096;17.190;2023-07-29T14:55:56;2.20;;;0.30;;
41705;SDS011;27385;51.096;17.190;2023-07-29T14:58:27;1.10;;;0.40;;
41705;SDS011;27385;51.096;17.190;2023-07-29T15:00:58;3.10;;;0.40;;
41705;SDS011;27385;51.096;17.190;2023-07-29T15:03:29;1.20;;;0.30;;
41705;SDS011;27385;51.096;17.190;2023-07-29T15:06:00;7.00;;;1.60;;